createdAt,value
2018-06-01T00:00:52.370Z,149159.00
2018-06-01T00:03:21.367Z,149160.25
2018-06-01T00:05:50.353Z,149162.11
2018-06-01T00:08:19.355Z,149152.77
2018-06-01T00:10:50.603Z,149145.86
2018-06-01T00:13:19.595Z,149144.62
2018-06-01T00:15:48.695Z,149137.75
2018-06-01T00:18:18.465Z,149135.27
2018-06-01T00:20:47.629Z,149133.41
2018-06-01T00:23:16.702Z,149140.25
2018-06-01T00:25:45.784Z,149141.50
2018-06-01T00:28:14.794Z,149154.02
2018-06-01T00:30:44.401Z,149166.47
2018-06-01T00:35:48.952Z,149172.70
2018-06-01T00:38:18.046Z,149191.41
2018-06-01T00:40:47.953Z,149194.53
2018-06-01T00:43:16.820Z,149199.56
2018-06-01T00:45:45.743Z,149207.66
2018-06-01T00:48:21.536Z,149211.41
2018-06-01T00:50:50.940Z,149211.41
2018-06-01T00:53:19.888Z,149216.39
2018-06-01T00:55:50.832Z,149217.02
2018-06-01T00:58:19.935Z,149222.63
2018-06-01T01:00:49.126Z,149225.12
2018-06-01T01:03:19.839Z,149230.72
2018-06-01T01:05:49.609Z,149226.98
2018-06-01T01:08:19.193Z,149225.12
2018-06-01T01:10:49.354Z,149221.38
2018-06-01T01:13:19.122Z,149218.25
2018-06-01T01:15:48.523Z,149220.75
2018-06-01T01:18:17.615Z,149210.78
2018-06-01T01:20:46.611Z,149210.16
2018-06-01T01:23:15.709Z,149203.92
2018-06-01T01:25:45.618Z,149199.56
2018-06-01T01:28:14.660Z,149183.31
2018-06-01T01:30:43.611Z,149170.22
2018-06-01T01:33:13.625Z,149175.20
2018-06-01T01:35:42.518Z,149173.95
2018-06-01T01:38:11.406Z,149187.67
2018-06-01T01:40:40.505Z,149168.34
2018-06-01T01:43:09.499Z,149172.09
2018-06-01T01:45:38.528Z,149165.23
2018-06-01T01:48:07.710Z,149154.62
2018-06-01T01:50:36.688Z,149125.30
2018-06-01T01:53:05.528Z,149135.27
2018-06-01T01:55:35.387Z,149134.02
2018-06-01T01:58:04.374Z,149110.91
2018-06-01T02:00:33.386Z,149108.42
2018-06-01T02:03:02.461Z,149111.53
2018-06-01T02:05:32.573Z,149105.31
2018-06-01T02:08:01.436Z,149104.69
2018-06-01T02:10:33.640Z,149100.27
2018-06-01T02:13:02.651Z,149104.69
2018-06-01T02:15:31.649Z,149093.42
2018-06-01T02:18:01.518Z,149104.69
2018-06-01T02:20:30.458Z,149109.67
2018-06-01T02:22:59.735Z,149109.05
2018-06-01T02:25:28.753Z,149100.27
2018-06-01T02:27:57.744Z,149107.17
2018-06-01T02:30:26.636Z,149110.30
2018-06-01T02:32:56.450Z,149120.94
2018-06-01T02:35:25.426Z,149124.67
2018-06-01T02:37:54.336Z,149122.81
2018-06-01T02:40:24.974Z,149122.81
2018-06-01T02:42:55.125Z,149111.53
2018-06-01T02:45:24.182Z,149126.53
2018-06-01T02:47:53.190Z,149125.92
2018-06-01T02:50:22.140Z,149124.05
2018-06-01T02:52:51.274Z,149139.63
2018-06-01T02:55:22.678Z,149142.75
2018-06-01T02:57:51.715Z,149151.52
2018-06-01T03:00:20.714Z,149154.62
2018-06-01T03:02:49.921Z,149175.20
2018-06-01T03:05:18.913Z,149219.50
2018-06-01T03:07:48.210Z,149271.30
2018-06-01T03:10:17.201Z,149355.63
2018-06-01T03:12:46.196Z,149452.39
2018-06-01T03:15:15.092Z,149562.33
2018-06-01T03:17:50.542Z,149617.28
2018-06-01T03:20:19.688Z,149714.80
2018-06-01T03:22:48.621Z,149784.19
2018-06-01T03:27:51.938Z,149936.75
2018-06-01T03:30:20.830Z,150054.37
2018-06-01T03:32:51.979Z,150116.28
2018-06-01T03:35:21.070Z,150195.78
2018-06-01T03:37:49.964Z,150197.03
2018-06-01T03:40:20.699Z,150037.45
2018-06-01T03:42:49.690Z,149981.14
2018-06-01T03:45:18.651Z,149994.88
2018-06-01T03:50:22.241Z,149960.53
2018-06-01T03:52:51.093Z,149946.11
2018-06-01T03:55:20.189Z,149891.72
2018-06-01T03:57:49.183Z,149722.95
2018-06-01T04:00:18.182Z,149745.44
2018-06-01T04:02:47.209Z,149682.34
2018-06-01T04:05:16.379Z,149657.91
2018-06-01T04:07:45.368Z,149601.69
2018-06-01T04:12:48.269Z,149894.22
2018-06-01T04:15:17.299Z,149851.09
2018-06-01T04:17:47.187Z,149966.14
2018-06-01T04:20:16.287Z,150060.63
2018-06-01T04:22:45.097Z,150070.63
2018-06-01T04:25:14.098Z,150170.69
2018-06-01T04:27:43.396Z,150138.78
2018-06-01T04:30:12.585Z,150038.08
2018-06-01T04:32:42.478Z,150065.00
2018-06-01T04:35:13.396Z,150200.78
2018-06-01T04:37:42.413Z,150369.77
2018-06-01T04:40:12.805Z,150354.14
2018-06-01T04:42:44.806Z,150178.25
2018-06-01T04:45:13.795Z,150128.16
2018-06-01T04:47:42.689Z,150028.09
2018-06-01T04:50:12.605Z,149963.66
2018-06-01T04:52:42.011Z,150009.92
2018-06-01T04:55:11.107Z,150021.22
2018-06-01T04:57:41.695Z,150096.23
2018-06-01T05:00:10.633Z,150071.88
2018-06-01T05:02:39.737Z,150215.78
2018-06-01T05:07:42.943Z,150163.19
2018-06-01T05:10:11.932Z,150005.55
2018-06-01T05:15:15.349Z,149842.92
2018-06-01T05:17:45.262Z,149776.69
2018-06-01T05:20:14.318Z,149766.66
2018-06-01T05:22:43.245Z,149764.78
2018-06-01T05:25:12.285Z,149817.95
2018-06-01T05:27:43.218Z,149863.00
2018-06-01T05:30:12.186Z,149908.59
2018-06-01T05:32:41.128Z,149889.22
2018-06-01T05:35:10.169Z,149896.72
2018-06-01T05:37:40.015Z,149958.03
2018-06-01T05:40:08.945Z,149994.25
2018-06-01T05:42:37.900Z,150036.22
2018-06-01T05:45:07.747Z,150126.91
2018-06-01T05:47:37.046Z,150230.78
2018-06-01T05:50:06.175Z,150321.53
2018-06-01T05:52:35.825Z,150319.66
2018-06-01T05:55:04.889Z,150431.14
2018-06-01T06:00:07.905Z,150688.59
2018-06-01T06:02:37.204Z,150787.58
2018-06-01T06:05:07.226Z,150964.41
2018-06-01T06:07:36.412Z,151207.75
2018-06-01T06:10:05.514Z,151382.27
2018-06-01T06:12:34.500Z,151573.09
2018-06-01T06:15:03.495Z,151738.89
2018-06-01T06:17:32.592Z,151859.55
2018-06-01T06:20:01.630Z,151970.78
2018-06-01T06:22:30.886Z,151923.03
2018-06-01T06:24:59.811Z,151705.59
2018-06-01T06:27:29.586Z,151498.34
2018-06-01T06:29:59.869Z,151175.11
2018-06-01T06:32:28.912Z,150951.84
2018-06-01T06:34:57.814Z,150958.16
2018-06-01T06:37:26.821Z,150978.19
2018-06-01T06:39:55.906Z,151008.30
2018-06-01T06:42:25.138Z,151000.11
2018-06-01T06:44:54.194Z,150973.19
2018-06-01T06:47:23.186Z,150926.13
2018-06-01T06:49:52.898Z,151095.45
2018-06-01T06:52:21.834Z,151425.52
2018-06-01T06:54:50.785Z,151831.89
2018-06-01T06:59:53.850Z,151839.41
2018-06-01T07:02:22.789Z,151840.05
2018-06-01T07:04:52.621Z,151815.58
2018-06-01T07:07:21.593Z,151730.09
2018-06-01T07:09:50.701Z,151751.44
2018-06-01T07:14:54.044Z,151890.30
2018-06-01T07:17:22.994Z,151952.53
2018-06-01T07:19:52.095Z,151870.22
2018-06-01T07:22:21.927Z,151884.03
2018-06-01T07:24:51.040Z,151862.69
2018-06-01T07:27:21.737Z,151977.69
2018-06-01T07:29:51.560Z,151794.81
2018-06-01T07:32:20.440Z,151859.55
2018-06-01T07:34:50.260Z,151510.30
2018-06-01T07:37:19.179Z,151421.13
2018-06-01T07:39:48.032Z,151382.89
2018-06-01T07:42:16.932Z,151422.38
2018-06-01T07:44:45.828Z,151342.67
2018-06-01T07:47:14.758Z,151226.55
2018-06-01T07:49:43.915Z,151342.05
2018-06-01T07:52:12.845Z,151395.42
2018-06-01T07:54:42.413Z,151358.97
2018-06-01T07:57:11.337Z,151402.95
2018-06-01T07:59:40.332Z,151536.06
2018-06-01T08:02:09.401Z,151617.00
2018-06-01T08:04:38.765Z,151776.00
2018-06-01T08:07:07.796Z,151709.34
2018-06-01T08:09:36.886Z,151551.11
2018-06-01T08:12:06.899Z,151463.19
2018-06-01T08:14:35.889Z,151426.77
2018-06-01T08:17:04.997Z,151227.84
2018-06-01T08:19:34.820Z,151284.92
2018-06-01T08:22:03.870Z,151200.22
2018-06-01T08:24:32.940Z,151220.91
2018-06-01T08:27:02.377Z,151212.75
2018-06-01T08:29:31.403Z,151261.11
2018-06-01T08:32:01.319Z,151295.00
2018-06-01T08:34:30.396Z,151318.81
2018-06-01T08:36:59.728Z,151350.19
2018-06-01T08:39:28.752Z,151439.98
2018-06-01T08:41:57.789Z,151379.70
2018-06-01T08:44:26.701Z,151409.84
2018-06-01T08:46:55.594Z,151477.64
2018-06-01T08:49:26.603Z,151527.28
2018-06-01T08:51:55.531Z,151449.39
2018-06-01T08:54:24.529Z,151423.63
2018-06-01T08:56:54.337Z,151489.56
2018-06-01T08:59:23.432Z,151487.05
2018-06-01T09:01:52.328Z,151480.16
2018-06-01T09:04:23.013Z,151535.44
2018-06-01T09:06:51.917Z,151575.61
2018-06-01T09:09:20.844Z,151469.45
2018-06-01T09:11:51.487Z,151537.94
2018-06-01T09:14:20.568Z,151493.95
2018-06-01T09:16:49.580Z,151391.03
2018-06-01T09:21:54.110Z,151450.64
2018-06-01T09:24:23.331Z,151432.45
2018-06-01T09:26:52.462Z,151429.28
2018-06-01T09:29:21.545Z,151457.53
2018-06-01T09:31:50.503Z,151466.94
2018-06-01T09:36:53.815Z,151516.56
2018-06-01T09:39:22.864Z,151531.03
2018-06-01T09:41:52.045Z,151487.05
2018-06-01T09:44:21.088Z,151518.45
2018-06-01T09:46:50.157Z,151422.38
2018-06-01T09:49:19.168Z,151449.39
2018-06-01T09:51:48.491Z,151488.30
2018-06-01T09:54:17.428Z,151290.61
2018-06-01T09:56:46.690Z,151163.22
2018-06-01T09:59:15.832Z,151040.25
2018-06-01T10:01:44.884Z,151081.63
2018-06-01T10:06:47.896Z,151123.08
2018-06-01T10:09:18.263Z,151104.28
2018-06-01T10:11:47.514Z,151077.25
2018-06-01T10:14:16.851Z,150936.14
2018-06-01T10:16:45.942Z,150889.75
2018-06-01T10:19:15.047Z,150965.05
2018-06-01T10:21:44.040Z,150988.22
2018-06-01T10:24:13.036Z,150965.67
2018-06-01T10:26:44.946Z,150793.84
2018-06-01T10:29:14.296Z,150819.59
2018-06-01T10:31:43.503Z,150865.97
2018-06-01T10:36:47.287Z,151005.80
2018-06-01T10:39:16.384Z,151035.23
2018-06-01T10:41:47.773Z,151018.33
2018-06-01T10:44:17.751Z,151041.50
2018-06-01T10:46:46.752Z,151044.63
2018-06-01T10:49:15.732Z,151042.75
2018-06-01T10:51:45.759Z,151027.09
2018-06-01T10:54:15.190Z,151022.08
2018-06-01T10:56:44.300Z,151040.87
2018-06-01T10:59:13.365Z,151055.95
2018-06-01T11:01:42.540Z,151004.55
2018-06-01T11:04:12.334Z,150960.03
2018-06-01T11:06:42.460Z,150936.77
2018-06-01T11:09:12.494Z,150943.08
2018-06-01T11:11:44.156Z,150863.47
2018-06-01T11:14:13.159Z,150804.53
2018-06-01T11:16:42.865Z,150780.06
2018-06-01T11:19:11.866Z,150772.56
2018-06-01T11:21:40.834Z,150800.14
2018-06-01T11:24:09.946Z,150779.44
2018-06-01T11:26:39.144Z,150797.02
2018-06-01T11:29:09.056Z,150808.28
2018-06-01T11:31:37.953Z,150836.50
2018-06-01T11:34:08.903Z,150853.41
2018-06-01T11:36:38.096Z,150718.69
2018-06-01T11:39:07.172Z,150687.34
2018-06-01T11:41:36.697Z,150716.81
2018-06-01T11:44:05.685Z,150686.72
2018-06-01T11:46:34.788Z,150688.59
2018-06-01T11:49:04.709Z,150735.58
2018-06-01T11:51:33.640Z,150711.13
2018-06-01T11:54:02.586Z,150711.75
2018-06-01T11:56:37.113Z,150659.14
2018-06-01T11:59:06.112Z,150665.39
2018-06-01T12:01:35.108Z,150668.53
2018-06-01T12:04:04.189Z,150579.58
2018-06-01T12:06:33.241Z,150568.28
2018-06-01T12:09:02.186Z,150552.00
2018-06-01T12:11:33.944Z,150577.70
2018-06-01T12:14:05.501Z,150528.23
2018-06-01T12:16:34.469Z,150454.28
2018-06-01T12:19:03.413Z,150413.59
2018-06-01T12:21:32.233Z,150408.58
2018-06-01T12:24:01.309Z,150319.66
2018-06-01T12:26:30.205Z,150200.16
2018-06-01T12:28:59.152Z,150194.53
2018-06-01T12:34:02.370Z,150245.22
2018-06-01T12:36:31.365Z,150194.53
2018-06-01T12:39:00.463Z,150079.36
2018-06-01T12:41:31.302Z,150078.11
2018-06-01T12:44:00.195Z,150116.28
2018-06-01T12:46:29.085Z,150136.28
2018-06-01T12:48:58.994Z,150119.41
2018-06-01T12:51:27.974Z,150028.09
2018-06-01T12:53:57.146Z,150011.22
2018-06-01T12:59:00.388Z,149980.52
2018-06-01T13:01:29.499Z,150041.20
2018-06-01T13:03:58.605Z,150081.86
2018-06-01T13:06:27.748Z,150034.95
2018-06-01T13:08:57.296Z,150013.72
2018-06-01T13:11:26.399Z,150046.83
2018-06-01T13:13:55.495Z,150087.48
2018-06-01T13:16:24.594Z,150042.45
2018-06-01T13:18:54.254Z,149961.16
2018-06-01T13:21:23.129Z,149926.75
2018-06-01T13:23:52.053Z,149936.75
2018-06-01T13:28:54.876Z,149986.13
2018-06-01T13:31:23.779Z,149945.48
2018-06-01T13:33:52.880Z,149961.16
2018-06-01T13:36:22.137Z,149972.39
2018-06-01T13:38:51.173Z,149892.97
2018-06-01T13:41:21.006Z,149932.37
2018-06-01T13:43:50.037Z,149906.09
2018-06-01T13:46:19.076Z,149847.34
2018-06-01T13:48:48.992Z,149829.19
2018-06-01T13:51:17.932Z,149861.08
2018-06-01T13:53:46.901Z,149901.72
2018-06-01T13:56:17.207Z,149888.61
2018-06-01T13:58:46.449Z,149840.42
2018-06-01T14:01:15.318Z,149824.81
2018-06-01T14:03:45.141Z,149781.06
2018-06-01T14:06:14.361Z,149821.06
2018-06-01T14:08:43.300Z,149767.33
2018-06-01T14:11:13.830Z,149760.41
2018-06-01T14:13:42.823Z,149754.17
2018-06-01T14:16:11.925Z,149761.03
2018-06-01T14:18:41.117Z,149809.78
2018-06-01T14:21:14.796Z,149773.58
2018-06-01T14:23:44.302Z,149754.17
2018-06-01T14:26:13.401Z,149759.78
2018-06-01T14:28:42.400Z,149752.92
2018-06-01T14:31:11.478Z,149757.28
2018-06-01T14:33:40.489Z,149697.94
2018-06-01T14:36:09.929Z,149728.58
2018-06-01T14:38:42.023Z,149714.80
2018-06-01T14:41:11.101Z,149747.31
2018-06-01T14:43:40.066Z,149771.08
2018-06-01T14:46:09.148Z,149750.42
2018-06-01T14:48:38.299Z,149744.19
2018-06-01T14:51:08.058Z,149720.45
2018-06-01T14:53:37.055Z,149691.70
2018-06-01T14:56:06.793Z,149721.08
2018-06-01T14:58:35.949Z,149722.33
2018-06-01T15:01:05.911Z,149705.44
2018-06-01T15:03:35.010Z,149716.67
2018-06-01T15:06:03.970Z,149696.06
2018-06-01T15:08:33.833Z,149710.42
2018-06-01T15:11:03.121Z,149679.84
2018-06-01T15:13:32.105Z,149711.67
2018-06-01T15:16:02.053Z,149694.81
2018-06-01T15:18:30.996Z,149662.89
2018-06-01T15:20:59.982Z,149661.03
2018-06-01T15:26:03.889Z,149621.03
2018-06-01T15:28:32.907Z,149601.06
2018-06-01T15:31:02.241Z,149589.22
2018-06-01T15:33:31.310Z,149574.81
2018-06-01T15:36:01.219Z,149549.22
2018-06-01T15:38:32.477Z,149566.06
2018-06-01T15:41:01.774Z,149530.50
2018-06-01T15:43:31.235Z,149531.13
2018-06-01T15:46:00.229Z,149517.98
2018-06-01T15:48:29.334Z,149474.84
2018-06-01T15:50:58.546Z,149460.50
2018-06-01T15:53:29.486Z,149402.44
2018-06-01T15:55:58.396Z,149381.19
2018-06-01T15:58:28.355Z,149379.31
2018-06-01T16:00:57.674Z,149374.33
2018-06-01T16:03:27.634Z,149343.14
2018-06-01T16:05:56.846Z,149335.00
2018-06-01T16:13:34.268Z,149253.22
2018-06-01T16:16:03.354Z,149254.47
2018-06-01T16:18:34.599Z,149258.83
2018-06-01T16:21:03.681Z,149205.80
2018-06-01T16:23:32.631Z,149197.64
2018-06-01T16:26:01.581Z,149207.03
2018-06-01T16:28:31.006Z,149175.83
2018-06-01T16:31:00.223Z,149194.53
2018-06-01T16:33:29.684Z,149141.50
2018-06-01T16:35:58.847Z,149136.52
2018-06-01T16:38:27.779Z,149135.27
2018-06-01T16:40:56.776Z,149124.67
2018-06-01T16:43:25.836Z,149107.80
2018-06-01T16:45:54.989Z,149064.13
2018-06-01T16:48:24.070Z,149030.44
2018-06-01T16:50:53.369Z,148988.03
2018-06-01T16:53:22.677Z,148989.89
2018-06-01T16:55:52.764Z,148980.55
2018-06-01T16:58:21.683Z,148938.77
2018-06-01T17:00:50.882Z,148935.66
2018-06-01T17:03:20.860Z,148923.81
2018-06-01T17:05:49.949Z,148901.30
2018-06-01T17:08:19.741Z,148888.84
2018-06-01T17:10:49.934Z,148876.39
2018-06-01T17:13:18.935Z,148857.03
2018-06-01T17:15:48.176Z,148835.86
2018-06-01T17:18:19.111Z,148827.16
2018-06-01T17:20:48.571Z,148817.75
2018-06-01T17:23:17.712Z,148807.80
2018-06-01T17:25:47.175Z,148796.59
2018-06-01T17:28:16.477Z,148798.45
2018-06-01T17:30:45.803Z,148789.73
2018-06-01T17:33:14.830Z,148772.25
2018-06-01T17:35:44.726Z,148734.28
2018-06-01T17:38:13.930Z,148723.03
2018-06-01T17:40:43.384Z,148698.08
2018-06-01T17:43:12.593Z,148689.37
2018-06-01T17:45:42.212Z,148691.86
2018-06-01T17:48:12.266Z,148685.00
2018-06-01T17:50:41.435Z,148700.56
2018-06-01T17:53:10.621Z,148673.75
2018-06-01T17:55:39.840Z,148659.44
2018-06-01T17:58:08.848Z,148664.42
2018-06-01T18:00:37.817Z,148660.06
2018-06-01T18:03:07.749Z,148674.37
2018-06-01T18:05:36.924Z,148649.48
2018-06-01T18:08:05.914Z,148650.73
2018-06-01T18:10:35.335Z,148666.91
2018-06-01T18:13:04.312Z,148658.20
2018-06-01T18:15:33.926Z,148660.69
2018-06-01T18:18:03.125Z,148671.89
2018-06-01T18:20:32.258Z,148692.48
2018-06-01T18:23:01.414Z,148688.13
2018-06-01T18:25:32.289Z,148704.92
2018-06-01T18:28:01.544Z,148723.03
2018-06-01T18:30:30.808Z,148729.31
2018-06-01T18:33:00.136Z,148738.02
2018-06-01T18:35:30.434Z,148752.34
2018-06-01T18:37:59.378Z,148749.84
2018-06-01T18:40:28.575Z,148772.25
2018-06-01T18:42:57.809Z,148768.53
2018-06-01T18:45:26.776Z,148773.55
2018-06-01T18:47:55.923Z,148772.94
2018-06-01T18:50:25.001Z,148763.55
2018-06-01T18:52:54.340Z,148743.00
2018-06-01T18:55:23.445Z,148719.30
2018-06-01T18:57:52.577Z,148691.86
2018-06-01T19:00:21.770Z,148683.77
2018-06-01T19:02:52.941Z,148675.00
2018-06-01T19:05:21.896Z,148673.75
2018-06-01T19:07:51.699Z,148693.72
2018-06-01T19:10:21.007Z,148670.03
2018-06-01T19:12:50.083Z,148680.03
2018-06-01T19:15:19.104Z,148684.39
2018-06-01T19:17:48.226Z,148689.37
2018-06-01T19:20:17.291Z,148677.50
2018-06-01T19:22:46.260Z,148658.83
2018-06-01T19:25:15.281Z,148605.88
2018-06-01T19:27:44.374Z,148612.72
2018-06-01T19:30:13.477Z,148602.77
2018-06-01T19:32:44.208Z,148574.09
2018-06-01T19:35:13.408Z,148557.92
2018-06-01T19:37:42.402Z,148547.34
2018-06-01T19:40:12.298Z,148554.81
2018-06-01T19:42:41.677Z,148544.84
2018-06-01T19:45:10.857Z,148527.38
2018-06-01T19:47:40.210Z,148545.47
2018-06-01T19:50:09.258Z,148523.03
2018-06-01T19:52:38.311Z,148514.94
2018-06-01T19:55:07.860Z,148534.22
2018-06-01T19:57:36.859Z,148522.41
2018-06-01T20:00:06.465Z,148533.59
2018-06-01T20:02:35.594Z,148534.84
2018-06-01T20:05:04.858Z,148547.34
2018-06-01T20:07:33.909Z,148528.00
2018-06-01T20:10:04.022Z,148522.41
2018-06-01T20:12:32.968Z,148511.20
2018-06-01T20:15:02.058Z,148500.58
2018-06-01T20:17:31.884Z,148519.92
2018-06-01T20:20:00.980Z,148519.30
2018-06-01T20:22:30.283Z,148520.53
2018-06-01T20:24:59.440Z,148475.66
2018-06-01T20:27:28.471Z,148481.25
2018-06-01T20:29:57.672Z,148499.34
2018-06-01T20:32:28.472Z,148498.72
2018-06-01T20:34:57.508Z,148484.36
2018-06-01T20:37:26.581Z,148494.98
2018-06-01T20:39:55.741Z,148496.84
2018-06-01T20:42:24.690Z,148483.73
2018-06-01T20:44:53.749Z,148486.22
2018-06-01T20:47:22.825Z,148482.50
2018-06-01T20:49:51.981Z,148476.89
2018-06-01T20:52:21.898Z,148477.52
2018-06-01T20:54:51.282Z,148476.27
2018-06-01T20:57:21.011Z,148489.38
2018-06-01T20:59:50.226Z,148473.78
2018-06-01T21:04:53.318Z,148452.64
2018-06-01T21:07:22.530Z,148456.98
2018-06-01T21:09:51.420Z,148450.14
2018-06-01T21:12:21.690Z,148441.39
2018-06-01T21:14:50.666Z,148443.94
2018-06-01T21:17:19.592Z,148438.91
2018-06-01T21:19:52.827Z,148428.33
2018-06-01T21:22:21.923Z,148442.69
2018-06-01T21:24:51.919Z,148437.66
2018-06-01T21:27:21.139Z,148430.81
2018-06-01T21:29:50.483Z,148419.62
2018-06-01T21:32:19.539Z,148414.03
2018-06-01T21:34:48.550Z,148427.70
2018-06-01T21:37:17.739Z,148414.64
2018-06-01T21:39:46.844Z,148403.45
2018-06-01T21:42:15.977Z,148377.91
2018-06-01T21:44:45.114Z,148372.94
2018-06-01T21:47:14.046Z,148365.47
2018-06-01T21:49:43.351Z,148358.62
2018-06-01T21:52:12.665Z,148348.69
2018-06-01T21:54:41.668Z,148326.88
2018-06-01T21:57:10.820Z,148321.28
2018-06-01T21:59:40.043Z,148307.59
2018-06-01T22:02:09.138Z,148290.14
2018-06-01T22:04:42.082Z,148283.92
2018-06-01T22:07:11.390Z,148290.77
2018-06-01T22:09:40.403Z,148281.44
2018-06-01T22:12:10.423Z,148276.41
2018-06-01T22:14:39.785Z,148285.16
2018-06-01T22:17:12.161Z,148286.41
2018-06-01T22:19:42.221Z,148277.03
2018-06-01T22:22:11.293Z,148257.14
2018-06-01T22:27:17.062Z,148221.66
2018-06-01T22:29:46.055Z,148222.28
2018-06-01T22:32:15.047Z,148196.75
2018-06-01T22:34:47.528Z,148196.13
2018-06-01T22:37:17.407Z,148185.56
2018-06-01T22:39:46.338Z,148196.75
2018-06-01T22:42:16.995Z,148187.42
2018-06-01T22:44:45.962Z,148189.30
2018-06-01T22:47:15.685Z,148194.89
2018-06-01T22:49:48.042Z,148186.19
2018-06-01T22:52:17.057Z,148184.94
2018-06-01T22:54:45.965Z,148179.97
2018-06-01T22:57:14.823Z,148170.03
2018-06-01T22:59:43.921Z,148189.91
2018-06-01T23:02:12.815Z,148184.31
2018-06-01T23:04:41.946Z,148183.08
2018-06-01T23:07:11.011Z,148177.48
2018-06-01T23:09:39.998Z,148176.23
2018-06-01T23:12:08.888Z,148162.56
2018-06-01T23:14:38.569Z,148151.95
2018-06-01T23:17:08.618Z,148160.70
2018-06-01T23:19:37.443Z,148177.48
2018-06-01T23:22:07.022Z,148176.86
2018-06-01T23:24:36.140Z,148178.72
2018-06-01T23:27:13.209Z,148171.89
2018-06-01T23:29:42.065Z,148176.86
2018-06-01T23:32:11.696Z,148191.78
2018-06-01T23:34:40.766Z,148196.13
2018-06-01T23:37:09.685Z,148212.33
2018-06-01T23:39:38.778Z,148199.86
2018-06-01T23:42:07.881Z,148194.27
2018-06-01T23:44:37.628Z,148192.41
2018-06-01T23:47:06.824Z,148198.00
2018-06-01T23:49:36.574Z,148196.13
2018-06-01T23:52:05.687Z,148183.08
2018-06-01T23:54:34.693Z,148184.94
2018-06-01T23:57:03.666Z,148163.19
2018-06-01T23:59:33.400Z,148156.92
